ADDS METAR Data INFO
IDs: Format: Raw Decoded Include TAF

Data at: 1931 UTC 16 Jan 2018

Region: TOP
KATL 161852Z 25009KT 10SM FEW050 BKN120 BKN250 09/M02 A3035 RMK AO2 SLP283 T00941017

KBOS 161854Z 14004KT 10SM FEW028 BKN090 BKN200 00/M05 A3046 RMK AO2 SLP313 T00001050

KBWI 161854Z 00000KT 10SM FEW011 FEW090 BKN160 BKN260 04/M03 A3038 RMK AO2 SLP290 T00391033

KCLE 161851Z 21010KT 8SM SCT022 OVC028 M11/M16 A3042 RMK AO2 SLP315 T11061156

KCLT 161852Z 22008KT 10SM FEW220 BKN250 09/M06 A3035 RMK AO2 SLP281 T00941061

KCVG 161852Z 25008KT 10SM FEW035 M13/M18 A3046 RMK AO2 SLP331 T11281178

KDCA 161852Z 16004KT 10SM FEW140 OVC250 03/M04 A3040 RMK AO2 SLP292 T00331039

KDEN 161853Z 14004KT 10SM SCT220 M02/M18 A3038 RMK AO2 SLP354 T10221183

KDFW 161853Z COR 34013G20KT 10SM FEW110 SCT250 M03/M18 A3075 RMK AO2 SLP418 T10331178 $

KDTW 161917Z 24011KT 2 1/2SM -SN BKN025 OVC035 M11/M14 A3039 RMK AO2 SFC VIS 3 P0000 T11061139 $

KEWR 161851Z 06005KT 9SM FEW009 BKN015 OVC025 03/M01 A3043 RMK AO2 SLP302 CIG 013V018 T00281011

KFLL 161853Z 05011G17KT 10SM FEW040 SCT250 22/13 A3021 RMK AO2 SLP231 T02220133

KIAD 161852Z 00000KT 10SM FEW040 BKN130 BKN250 03/M06 A3038 RMK AO2 SLP290 T00281056

KIAH 161853Z 35015G24KT 5SM -PL BR FEW005 BKN015 OVC050 M03/M06 A3064 RMK AO2 FZRAE41 SLP376 P0008 I1000 T10331056

KJFK 161851Z 11005KT 10SM FEW017 BKN031 BKN075 BKN200 03/M01 A3044 RMK AO2 SLP308 T00281011

KLAS 161856Z 36005KT 10SM SCT110 BKN200 OVC250 15/01 A3024 RMK AO2 SLP231 VIRGA W-NE T01500011

KLAX 161853Z 23004KT 4SM HZ FEW015 SCT100 BKN140 18/14 A3016 RMK AO2 SLP212 T01830144 $

KLGA 161851Z 06008KT 10SM FEW027 SCT032 BKN070 OVC170 01/M04 A3043 RMK AO2 SLP304 T00061039

KMCO 161853Z 04009KT 8SM SCT055 SCT250 21/08 A3030 RMK AO2 SLP259 T02060078

KMDW 161853Z 32012KT 10SM FEW018 SCT023 BKN060 M04/M08 A3044 RMK AO2 SNB04E44 SLP327 P0000 T10441083

KMEM 161854Z 33009KT 10SM FEW028 FEW065 M09/M16 A3065 RMK AO2 SLP383 T10891156 $

KMIA 161853Z 03009KT 10SM FEW045 FEW060 BKN300 23/12 A3022 RMK AO2 SLP233 T02330117 $

KMSP 161853Z 25007KT 10SM FEW015 M14/M19 A3065 RMK AO2 SLP403 T11391189

KORD 161851Z 32011KT 10SM SCT045 SCT050 M04/M11 A3043 RMK AO2 SNE1757 SLP318 P0000 T10441111

KPDX 161853Z 11012KT 10SM FEW015 FEW035 SCT050 BKN250 09/07 A3027 RMK AO2 SLP248 T00940067

KPHL 161854Z 00000KT 10SM FEW030 BKN180 06/M02 A3040 RMK AO2 SLP293 T00611017

KPHX 161851Z 16007KT 10SM FEW150 SCT250 21/00 A3015 RMK AO2 SLP200 T02110000

KPIT 161923Z 29009KT 1 1/2SM R28R/4500VP6000FT -SN BR BKN011 OVC021 M06/M08 A3031 RMK AO2 P0001 T10561078

KSAN 161851Z 31008KT 10SM FEW003 SCT160 SCT200 BKN250 18/13 A3017 RMK AO2 SLP216 T01830133

KSEA 161853Z 19012KT 10SM FEW035 11/06 A3021 RMK AO2 SLP238 T01110061

KSFO 161903Z 36004KT 5SM BR FEW016 SCT028 14/12 A3025 RMK AO2 T01390117

KSLC 161854Z 02006KT 10SM FEW120 SCT200 08/M04 A3032 RMK AO2 SLP265 T00781039

KSTL 161851Z 28013KT 10SM FEW020 FEW040 FEW250 M13/M18 A3064 RMK AO2 SLP402 T11331183

KTPA 161853Z VRB04KT 10SM SCT055 SCT250 23/08 A3030 RMK AO2 SLP258 T02330083